Tiempo atmosférico en la estación meteorológica de Fuencaliente, Ciudad Real (640 m.)



Fecha
DESCASC
Temp. máxima en grados centígrados (hora)
DESCASC
Temp. mínima en grados centígrados (hora)
DESCASC
Temp. media en grados centígrados
DESCASC
Racha de viento máxima en m/sg (hora)
DESCASC
Velocidad máxima media en intervalos de 10 minutos(hora)
DESCASC
Precipitaciones diarias en mm
DESCASC
Precipitaciones de 00:00 a 06:00 en mm
DESCASC
Precipitaciones de 06:00 a 12:00 en mm
DESCASC
Precipitaciones de 12:00 a 18:00 en mm
DESCASC
Precipitaciones de 18:00 a 24:00 en mm
DESCASC
23-07-2020 36.7 (16:40) 21.6 (00:00) 29.2 7.78 (12:50) 3.33 (18:10) 0 0 0 0 0
06-08-2020 38.8 (18:00) 18.9 (00:00) 28.8 8.61 (15:20) 3.61 (15:20) 0 0 0 0 0
05-08-2020 36.6 (17:10) 17.7 (00:00) 27.1 6.39 (14:20) 4.17 (17:30) 0 0 0 0 0
04-08-2020 34.4 (16:40) 20 (08:20) 27.2 6.67 (04:50) 3.33 (16:50) 0 0 0 0 0
03-08-2020 33.9 (16:40) 17.7 (06:30) 25.8 7.22 (17:20) 3.33 (13:00) 0 0 0 0 0
02-08-2020 38.1 (16:50) 18.7 (00:00) 28.4 10.83 (17:20) 4.72 (15:40) 0 0 0 0 0
01-08-2020 39 (16:20) 20 (00:00) 29.5 8.89 (13:40) 4.44 (17:40) 0 0 0 0 0
31-07-2020 39.8 (17:10) 18.4 (07:10) 29.1 9.17 (19:20) 4.17 (15:10) 0 0 0 0 0
30-07-2020 37.7 (17:50) 20.1 (00:00) 28.9 11.94 (19:50) 6.11 (15:50) 0 0 0 0 0
29-07-2020 38.6 (18:40) 18.5 (00:00) 28.5 6.94 (18:00) 3.61 (16:20) 0 0 0 0 0
28-07-2020 37.7 (18:10) 17.7 (00:00) 27.7 8.33 (15:30) 3.89 (15:30) 0 0 0 0 0
27-07-2020 38.3 (17:00) 20.7 (00:00) 29.5 9.44 (19:00) 5 (14:20) 0 0 0 0 0
26-07-2020 40.1 (16:40) 18.7 (00:00) 29.4 8.33 (16:10) 3.89 (15:30) 0 0 0 0 0
25-07-2020 38.3 (18:10) 18.6 (00:00) 28.4 8.06 (14:40) 4.17 (16:50) 0 0 0 0 0
24-07-2020 37.4 (17:00) 18.4 (00:00) 27.9 8.06 (14:50) 4.17 (14:50) 0 0 0 0 0
08-07-2020 35 (12:00) 21.6 (04:10) 28.3 11.39 (16:50) 6.11 (17:00) 0 0 0 0 0
22-07-2020 33.8 (17:40) 18 (00:00) 25.9 8.89 (13:40) 3.61 (13:50) 0 0 0 0 0
21-07-2020 35.1 (16:10) 20.5 (00:00) 27.8 9.44 (12:00) 4.44 (14:00) 0.2 0 0.2 0 0
20-07-2020 38 (18:30) 18 (00:00) 28 6.11 (14:30) 3.33 (16:40) 0 0 0 0 0
19-07-2020 37.4 (17:50) 17.8 (00:00) 27.6 11.39 (16:30) 5.28 (15:30) 0 0 0 0 0
18-07-2020 38.1 (18:10) 16.8 (00:00) 27.4 9.44 (22:10) 4.44 (19:20) 0 0 0 0 0
17-07-2020 37.9 (18:10) 18 (00:00) 28 7.5 (16:30) 3.33 (13:10) 0 0 0 0 0
16-07-2020 36.7 (16:30) 18.9 (00:00) 27.8 7.22 (00:50) 3.61 (00:40) 0 0 0 0 0
15-07-2020 34 (16:10) 16.3 (00:00) 25.1 6.39 (23:40) 3.06 (23:40) 0 0 0 0 0
14-07-2020 33.1 (15:20) 18.2 (00:00) 25.6 11.39 (17:30) 4.17 (16:30) 3.8 0 0 3.8 0
13-07-2020 36 (18:10) 17.9 (00:00) 26.9 6.39 (14:10) 3.33 (15:00) 0 0 0 0 0
12-07-2020 35.8 (17:00) 20.3 (07:40) 28 9.72 (18:00) 4.72 (18:00) 0 0 0 0 0
11-07-2020 37.6 (17:20) 17.2 (07:10) 27.4 8.61 (17:40) 4.17 (20:40) 0 0 0 0 0
10-07-2020 35.6 (19:10) 14.2 (00:00) 24.9 6.39 (13:20) 2.22 (00:40) 0 0 0 0 0
09-07-2020 34.2 (17:40) 14.3 (07:40) 24.3 6.94 (13:10) 3.89 (16:30) 0 0 0 0 0

Gráficas

Temp. máximas Temp. mínimas Temp. medias Precipitaciones Rachas de viento máximas Velocidades máximas media en intervalos de 10 minutos

Datos horarios

Fecha y hora oficial Temperatura (ºC) Velocidad del viento (km/h) Dirección del viento Racha (km/h) Dirección de racha Precipitación (mm) Presión (hPa) Tendencia (hPa) Humedad (%)
2020-08-06 23:00:00 26.1 0 Calma 6 Nordeste 0 -- -- 40
2020-08-06 22:00:00 29 0 Calma 9 Nordeste 0 -- -- 34
2020-08-06 21:00:00 33.2 0 Calma 9 Sur 0 -- -- 26
2020-08-06 20:00:00 37.5 5 Sur 16 Sudeste 0 -- -- 19
2020-08-06 19:00:00 38.3 6 Sur 20 Sudoeste 0 -- -- 18
2020-08-06 18:00:00 38.8 12 Oeste 23 Sudoeste 0 -- -- 19
2020-08-06 17:00:00 38.1 7 Oeste 21 Sur 0 -- -- 19
2020-08-06 16:00:00 37.8 12 Sudoeste 31 Sudoeste 0 -- -- 19
2020-08-06 15:00:00 37 12 Sudoeste 24 Oeste 0 -- -- 21
2020-08-06 14:00:00 36 11 Sudoeste 25 Sur 0 -- -- 23
2020-08-06 13:00:00 34.6 9 Sur 23 Sur 0 -- -- 25
2020-08-06 12:00:00 33.5 10 Sur 19 Sur 0 -- -- 27
2020-08-06 11:00:00 32.3 6 Sur 14 Sur 0 -- -- 30
2020-08-06 10:00:00 29.3 0 Calma 3 Sudoeste 0 -- -- 34
2020-08-06 09:00:00 22.5 0 Calma 3 Este 0 -- -- 54
2020-08-06 08:00:00 18.9 0 Calma 6 Nordeste 0 -- -- 56
2020-08-06 07:00:00 19.6 2 Nordeste 6 Nordeste 0 -- -- 54
2020-08-06 06:00:00 19.9 2 Norte 6 Sudoeste 0 -- -- 50
2020-08-06 05:00:00 20.6 2 Este 7 Este 0 -- -- 50
2020-08-06 04:00:00 21.8 3 Nordeste 8 Este 0 -- -- 45
2020-08-06 03:00:00 21.1 0 Calma 4 Este 0 -- -- 54
2020-08-06 02:00:00 22 3 Nordeste 5 Este 0 -- -- 51
2020-08-06 01:00:00 22.9 2 Nordeste 4 Este 0 -- -- 49
2020-08-06 00:00:00 24.1 0 Calma 6 Sudoeste 0 -- -- 45
2020-08-05 23:00:00 25.9 0 Calma 5 Nordeste 0 -- -- 43
2020-08-05 22:00:00 28.2 2 Nordeste 7 Sur 0 -- -- 37
2020-08-05 21:00:00 32.7 3 Sur 16 Sudoeste 0 -- -- 29
2020-08-05 20:00:00 35.1 7 Sudoeste 21 Sudoeste 0 -- -- 25
2020-08-05 19:00:00 35.7 7 Sur 21 Sur 0 -- -- 24
2020-08-05 18:00:00 36.3 9 Sudeste 23 Sudoeste 0 -- -- 24
2020-08-05 17:00:00 36.2 7 Sur 23 Sudoeste 0 -- -- 25
2020-08-05 16:00:00 34.6 8 Sudoeste 22 Sudoeste 0 -- -- 27
2020-08-05 15:00:00 35.2 12 Sudeste 23 Sudoeste 0 -- -- 27
2020-08-05 14:00:00 34.6 13 Sudoeste 20 Sur 0 -- -- 27
2020-08-05 13:00:00 33 8 Sur 21 Sudeste 0 -- -- 34
2020-08-05 12:00:00 31.1 9 Sudeste 18 Sudeste 0 -- -- 39
2020-08-05 11:00:00 29.2 7 Sur 15 Sur 0 -- -- 44
2020-08-05 10:00:00 27.4 5 Sudeste 9 Sudeste 0 -- -- 48
2020-08-05 09:00:00 22.3 0 Calma 4 Este 0 -- -- 65
2020-08-05 08:00:00 17.9 0 Calma 6 Nordeste 0 -- -- 68
2020-08-05 07:00:00 18 0 Calma 5 Nordeste 0 -- -- 66
2020-08-05 06:00:00 18.6 0 Calma 4 Nordeste 0 -- -- 61
2020-08-05 05:00:00 19.2 0 Calma 6 Nordeste 0 -- -- 60
2020-08-05 04:00:00 19.6 0 Calma 5 Este 0 -- -- 58
2020-08-05 03:00:00 20.2 2 Nordeste 6 Nordeste 0 -- -- 54
2020-08-05 02:00:00 21 3 Norte 8 Sudoeste 0 -- -- 54
2020-08-05 01:00:00 21.8 0 Calma 5 Este 0 -- -- 51
2020-08-05 00:00:00 22.7 0 Calma 5 Oeste 0 -- -- 46
2020-08-04 23:00:00 24.6 0 Calma 6 Nordeste 0 -- -- 43
2020-08-04 22:00:00 27.1 0 Calma 8 Nordeste 0 -- -- 41
2020-08-04 21:00:00 29.6 0 Calma 10 Sur 0 -- -- 35
2020-08-04 20:00:00 32.7 4 Sur 9 Sudeste 0 -- -- 26
2020-08-04 19:00:00 32.3 0 Calma 7 Noroeste 0 -- -- 29
2020-08-04 18:00:00 32.9 2 Este 14 Oeste -- -- -- 25
2020-08-04 17:00:00 34.3 9 Oeste 19 Sudoeste 0 -- -- 24
2020-08-04 16:00:00 33.2 8 Sudoeste 18 Sudoeste 0 -- -- 26
2020-08-04 15:00:00 33.9 8 Sur 24 Sudoeste 0 -- -- 24
2020-08-04 14:00:00 33.3 10 Sur 19 Sur 0 -- -- 22
2020-08-04 13:00:00 32 8 Sur 18 Sudoeste 0 -- -- 27
2020-08-04 12:00:00 30.8 9 Sur 19 Sudeste 0 -- -- 29
2020-08-04 11:00:00 29.2 10 Sur 18 Sur 0 -- -- 31
2020-08-04 10:00:00 26.9 5 Sudeste 10 Sudeste 0 -- -- 33
2020-08-04 09:00:00 22.6 0 Calma 4 Nordeste 0 -- -- 41
2020-08-04 08:00:00 21 0 Calma 16 Noroeste 0 -- -- 40
2020-08-04 07:00:00 22 9 Norte 14 Nordeste 0 -- -- 35
2020-08-04 06:00:00 23.3 5 Noroeste 13 Nordeste 0 -- -- 33
2020-08-04 05:00:00 24.1 7 Nordeste 24 Nordeste 0 -- -- 31
2020-08-04 04:00:00 20.5 3 Nordeste 8 Nordeste 0 -- -- 41
2020-08-04 03:00:00 20.5 2 Oeste 6 Sudoeste 0 -- -- 45
2020-08-04 02:00:00 20.3 0 Calma 5 Sudeste 0 -- -- 47
2020-08-04 01:00:00 21.2 0 Calma 5 Norte 0 -- -- 47
2020-08-04 00:00:00 22.3 0 Calma 5 Este 0 -- -- 44
2020-08-03 23:00:00 23.9 0 Calma 6 Nordeste 0 -- -- 40
2020-08-03 22:00:00 26.3 0 Calma 8 Este 0 -- -- 33
2020-08-03 21:00:00 30.4 3 Norte 13 Nordeste 0 -- -- 27
2020-08-03 20:00:00 32.9 5 Oeste 19 Nordeste 0 -- -- 23
2020-08-03 19:00:00 33.8 5 Nordeste 19 Nordeste 0 -- -- 23
2020-08-03 18:00:00 33.4 8 Sur 26 Este 0 -- -- 23
2020-08-03 17:00:00 33.4 9 Nordeste 19 Nordeste 0 -- -- 22
2020-08-03 16:00:00 32.9 7 Este 23 Norte 0 -- -- 23
2020-08-03 15:00:00 32.4 8 Nordeste 26 Este 0 -- -- 23
2020-08-03 14:00:00 31.8 8 Nordeste 24 Este 0 -- -- 24
2020-08-03 13:00:00 30.8 12 Nordeste 24 Este 0 -- -- 27
2020-08-03 12:00:00 30.3 9 Este 22 Este 0 -- -- 26
2020-08-03 11:00:00 29 10 Este 21 Este 0 -- -- 27
2020-08-03 10:00:00 26 4 Sudoeste 12 Noroeste 0 -- -- 38
2020-08-03 09:00:00 22.2 2 Sudoeste 13 Norte 0 -- -- 47
2020-08-03 08:00:00 20.9 7 Norte 14 Norte 0 -- -- 49
2020-08-03 07:00:00 19 2 Noroeste 11 Norte 0 -- -- 53
2020-08-03 06:00:00 18.1 0 Calma 7 Norte 0 -- -- 52
2020-08-03 05:00:00 18.5 2 Nordeste 4 Sudoeste 0 -- -- 53
2020-08-03 04:00:00 20.5 0 Calma 5 Oeste 0 -- -- 47
2020-08-03 03:00:00 23 0 Calma 9 Este 0 -- -- 38
2020-08-03 02:00:00 23.6 5 Nordeste 10 Norte 0 -- -- 32
2020-08-03 01:00:00 23.2 4 Norte 8 Norte 0 -- -- 33
2020-08-03 00:00:00 24.5 0 Calma 6 Nordeste 0 -- -- 29
2020-08-02 23:00:00 26.3 5 Nordeste 8 Nordeste 0 -- -- 25
2020-08-02 22:00:00 27.9 5 Norte 9 Nordeste 0 -- -- 23
2020-08-02 21:00:00 31.1 2 Nordeste 18 Oeste 0 -- -- 19
2020-08-02 20:00:00 35.4 7 Oeste 23 Sudoeste 0 -- -- 14
2020-08-02 19:00:00 36.6 6 Oeste 24 Noroeste 0 -- -- 12
2020-08-02 18:00:00 37.5 13 Oeste 39 Sudoeste 0 -- -- 9
2020-08-02 17:00:00 37.9 13 Oeste 38 Oeste 0 -- -- 9
2020-08-02 16:00:00 37.4 14 Oeste 37 Sudoeste 0 -- -- 11
2020-08-02 15:00:00 37.2 14 Oeste 31 Oeste 0 -- -- 11
2020-08-02 14:00:00 35.9 9 Oeste 28 Sur 0 -- -- 11
2020-08-02 13:00:00 34.3 15 Oeste 29 Sudoeste 0 -- -- 12
2020-08-02 12:00:00 32.5 6 Sudeste 16 Sudeste 0 -- -- 19
2020-08-02 11:00:00 29.3 6 Sudeste 13 Sur 0 -- -- 30
2020-08-02 10:00:00 26.6 8 Sur 11 Sudeste 0 -- -- 36
2020-08-02 09:00:00 22.4 0 Calma 4 Nordeste 0 -- -- 53
2020-08-02 08:00:00 18.7 0 Calma 2 Norte 0 -- -- 57
2020-08-02 07:00:00 19.6 0 Calma 3 Este 0 -- -- 54
2020-08-02 06:00:00 19.9 0 Calma 4 Nordeste 0 -- -- 46
2020-08-02 05:00:00 19.4 0 Calma 3 Nordeste 0 -- -- 40
2020-08-02 04:00:00 20 0 Calma 3 Nordeste 0 -- -- 34
2020-08-02 03:00:00 21.1 0 Calma 4 Sur 0 -- -- 34
2020-08-02 02:00:00 21 3 Norte 6 Noroeste 0 -- -- 34
2020-08-02 01:00:00 21.6 0 Calma 2 Nordeste 0 -- -- 28
2020-08-02 00:00:00 22.9 0 Calma 6 Noroeste 0 -- -- 26
2020-08-01 23:00:00 25.6 5 Norte 10 Noroeste 0 -- -- 17
2020-08-01 22:00:00 28.8 4 Norte 9 Nordeste 0 -- -- 15
2020-08-01 21:00:00 32.2 2 Nordeste 15 Oeste 0 -- -- 13
2020-08-01 20:00:00 36.7 6 Oeste 24 Sudoeste 0 -- -- 10
2020-08-01 19:00:00 37.6 15 Sudoeste 27 Oeste 0 -- -- 9
2020-08-01 18:00:00 38.7 12 Oeste 31 Oeste 0 -- -- 7
2020-08-01 17:00:00 38.9 12 Oeste 30 Oeste 0 -- -- 8
2020-08-01 16:00:00 38.4 12 Sudoeste 30 Oeste 0 -- -- 10
2020-08-01 15:00:00 37 9 Oeste 31 Sudoeste 0 -- -- 12
2020-08-01 14:00:00 35.9 15 Sudoeste 32 Sudoeste 0 -- -- 17
2020-08-01 13:00:00 35 14 Sudoeste 23 Sudoeste 0 -- -- 21
2020-08-01 12:00:00 33.2 6 Sudeste 14 Sudoeste 0 -- -- 27
2020-08-01 11:00:00 31.6 7 Sur 13 Sudoeste 0 -- -- 31
2020-08-01 10:00:00 28.3 2 Sudeste 4 Sur 0 -- -- 39
2020-08-01 09:00:00 23 0 Calma 3 Este 0 -- -- 54
2020-08-01 08:00:00 20.2 0 Calma 6 Este 0 -- -- 57
2020-08-01 07:00:00 21.1 2 Noroeste 7 Este 0 -- -- 55
2020-08-01 06:00:00 23.3 4 Nordeste 13 Este 0 -- -- 48
2020-08-01 05:00:00 22.9 3 Norte 7 Nordeste 0 -- -- 48
2020-08-01 04:00:00 23 3 Sudeste 8 Nordeste 0 -- -- 45
2020-08-01 03:00:00 23.3 0 Calma 5 Sudoeste 0 -- -- 43
2020-08-01 02:00:00 24.1 2 Nordeste 6 Nordeste 0 -- -- 43
2020-08-01 01:00:00 24.8 0 Calma 4 Este 0 -- -- 38
2020-08-01 00:00:00 25.3 0 Calma 6 Norte 0 -- -- 36
2020-07-31 23:00:00 26.8 3 Nordeste 8 Nordeste 0 -- -- 35
2020-07-31 22:00:00 29.1 2 Nordeste 14 Sudeste 0 -- -- 29
2020-07-31 21:00:00 33.8 4 Este 20 Sudoeste 0 -- -- 26
2020-07-31 20:00:00 36.5 8 Sur 33 Sudoeste 0 -- -- 19
2020-07-31 19:00:00 38.3 12 Sudoeste 27 Oeste 0 -- -- 17
2020-07-31 18:00:00 39.6 7 Oeste 24 Sudoeste 0 -- -- 16
2020-07-31 17:00:00 39.5 10 Oeste 27 Oeste 0 -- -- 16
2020-07-31 16:00:00 38.7 14 Sur 31 Sudoeste 0 -- -- 17
2020-07-31 15:00:00 37.8 13 Oeste 28 Sudoeste 0 -- -- 19
2020-07-31 14:00:00 36.2 11 Oeste 26 Oeste 0 -- -- 21
2020-07-31 13:00:00 35.2 9 Sur 23 Sudoeste 0 -- -- 26
2020-07-31 12:00:00 33.4 11 Sur 21 Sudeste 0 -- -- 31
2020-07-31 11:00:00 31.5 7 Sur 14 Sudeste 0 -- -- 37
2020-07-31 10:00:00 29.4 4 Sudeste 7 Sur 0 -- -- 42
2020-07-31 09:00:00 22.9 0 Calma 6 Nordeste 0 -- -- 59
2020-07-31 08:00:00 18.6 0 Calma 2 Nordeste 0 -- -- 65
2020-07-31 07:00:00 18.5 0 Calma 4 Nordeste 0 -- -- 61
2020-07-31 06:00:00 19.1 0 Calma 4 Nordeste 0 -- -- 60
2020-07-31 05:00:00 19.8 0 Calma 5 Sudoeste 0 -- -- 58
2020-07-31 04:00:00 21.1 2 Nordeste 5 Nordeste 0 -- -- 53
2020-07-31 03:00:00 22.2 0 Calma 4 Nordeste 0 -- -- 53
2020-07-31 02:00:00 23.6 0 Calma 5 Nordeste 0 -- -- 52
2020-07-31 01:00:00 26.3 3 Nordeste 14 Sudeste 0 -- -- 46
2020-07-31 00:00:00 30.5 3 Oeste 29 Sur 0 -- -- 33
2020-07-30 23:00:00 31.4 16 Sudoeste 26 Sudoeste 0 -- -- 38
2020-07-30 22:00:00 32.3 9 Sudoeste 28 Sur 0 -- -- 35
2020-07-30 21:00:00 33.6 15 Sudoeste 32 Sur 0 -- -- 32
2020-07-30 20:00:00 35.7 12 Sur 43 Sur 0 -- -- 26
2020-07-30 19:00:00 37.1 14 Sudoeste 33 Sudoeste 0 -- -- 25
2020-07-30 18:00:00 37.7 15 Sudoeste 36 Sudoeste 0 -- -- 23
2020-07-30 17:00:00 37.4 13 Sur 39 Sudoeste 0 -- -- 24
2020-07-30 16:00:00 37.5 15 Sudoeste 39 Sudeste 0 -- -- 20
2020-07-30 15:00:00 37.2 15 Sur 43 Sur 0 -- -- 23
2020-07-30 14:00:00 37.1 15 Sur 30 Sudeste 0 -- -- 23
2020-07-30 13:00:00 35.8 10 Sudeste 21 Sudeste 0 -- -- 26
2020-07-30 12:00:00 34 6 Sur 15 Sur 0 -- -- 30
2020-07-30 11:00:00 31.8 5 Sudeste 12 Sur 0 -- -- 36
2020-07-30 10:00:00 29.4 5 Sudeste 8 Sudeste 0 -- -- 42
2020-07-30 09:00:00 24.6 0 Calma 5 Noroeste 0 -- -- 57
2020-07-30 08:00:00 20.3 0 Calma 6 Nordeste 0 -- -- 66
2020-07-30 07:00:00 20.1 3 Nordeste 5 Nordeste 0 -- -- 63
2020-07-30 06:00:00 20.9 0 Calma 4 Este 0 -- -- 60
2020-07-30 05:00:00 21.8 3 Nordeste 8 Nordeste 0 -- -- 57
2020-07-30 04:00:00 22.3 0 Calma 7 Nordeste 0 -- -- 52
2020-07-30 03:00:00 23.4 0 Calma 3 Nordeste 0 -- -- 49
2020-07-30 02:00:00 24.2 0 Calma 6 Nordeste 0 -- -- 48
2020-07-30 01:00:00 25.3 3 Este 9 Este 0 -- -- 44
2020-07-30 00:00:00 24.9 0 Calma 4 Nordeste 0 -- -- 41
2020-07-29 23:00:00 26.1 0 Calma 5 Nordeste 0 -- -- 35
2020-07-29 22:00:00 28.5 3 Nordeste 5 Nordeste 0 -- -- 32
2020-07-29 21:00:00 34.1 4 Sudoeste 16 Sur 0 -- -- 21
2020-07-29 20:00:00 36.8 10 Sur 17 Sudoeste 0 -- -- 19
2020-07-29 19:00:00 38.4 8 Sur 22 Sudoeste 0 -- -- 15
2020-07-29 18:00:00 38.5 10 Sudoeste 25 Sudoeste 0 -- -- 18
2020-07-29 17:00:00 38.1 7 Sur 23 Sur 0 -- -- 18
2020-07-29 16:00:00 37.6 12 Sur 23 Este 0 -- -- 19
2020-07-29 15:00:00 37.3 10 Sudoeste 24 Sur 0 -- -- 15
2020-07-29 14:00:00 36.4 9 Sudoeste 19 Sur 0 -- -- 20
2020-07-29 13:00:00 35.2 8 Sur 20 Sudeste 0 -- -- 23
2020-07-29 12:00:00 33.9 8 Sur 13 Sur 0 -- -- 28
2020-07-29 11:00:00 31.4 6 Sudeste 10 Sur 0 -- -- 33
2020-07-29 10:00:00 28.6 3 Sur 6 Sur 0 -- -- 34
2020-07-29 09:00:00 22.7 2 Este 5 Nordeste 0 -- -- 54
2020-07-29 08:00:00 18.9 0 Calma 4 Nordeste 0 -- -- 54
2020-07-29 07:00:00 18.5 2 Norte 5 Nordeste 0 -- -- 53
2020-07-29 06:00:00 18.8 0 Calma 4 Nordeste 0 -- -- 50
2020-07-29 05:00:00 19.4 0 Calma 3 Nordeste 0 -- -- 50
2020-07-29 04:00:00 20 0 Calma 5 Este 0 -- -- 48
2020-07-29 03:00:00 21.5 3 Nordeste 9 Nordeste 0 -- -- 40
2020-07-29 02:00:00 21.4 0 Calma 3 Nordeste 0 -- -- 43
2020-07-29 01:00:00 22.1 0 Calma 4 Nordeste 0 -- -- 38
2020-07-29 00:00:00 23.1 0 Calma 4 Nordeste 0 -- -- 42
2020-07-28 23:00:00 24.9 0 Calma 6 Este 0 -- -- 36
2020-07-28 22:00:00 28.5 0 Calma 8 Oeste 0 -- -- 31
2020-07-28 21:00:00 32.9 3 Oeste 10 Oeste 0 -- -- 23
2020-07-28 20:00:00 36.8 2 Noroeste 19 Oeste 0 -- -- 20
2020-07-28 19:00:00 37.7 6 Oeste 18 Oeste 0 -- -- 18
2020-07-28 18:00:00 37.6 9 Oeste 21 Oeste 0 -- -- 19
2020-07-28 17:00:00 37.4 12 Sudoeste 24 Sudoeste 0 -- -- 19
2020-07-28 16:00:00 36.8 5 Oeste 30 Sudoeste 0 -- -- 20
2020-07-28 15:00:00 35.7 9 Este 25 Oeste 0 -- -- 22
2020-07-28 14:00:00 35.1 10 Sur 27 Sur 0 -- -- 24
2020-07-28 13:00:00 34.5 8 Sudoeste 17 Sudoeste 0 -- -- 27
2020-07-28 12:00:00 32.2 9 Este 16 Sudeste 0 -- -- 32
2020-07-28 11:00:00 30.6 6 Sur 12 Sudeste 0 -- -- 36
2020-07-28 10:00:00 28 4 Sudeste 6 Sur 0 -- -- 39
2020-07-28 09:00:00 22.5 0 Calma 2 Nordeste 0 -- -- 57
2020-07-28 08:00:00 18.1 0 Calma 5 Nordeste 0 -- -- 64
2020-07-28 07:00:00 17.7 0 Calma 4 Nordeste 0 -- -- 62
2020-07-28 06:00:00 18.2 0 Calma 3 Nordeste 0 -- -- 56
2020-07-28 05:00:00 18.8 0 Calma 3 Nordeste 0 -- -- 54
2020-07-28 04:00:00 19.7 0 Calma 4 Nordeste 0 -- -- 51
2020-07-28 03:00:00 20.9 0 Calma 3 Nordeste 0 -- -- 47
2020-07-28 02:00:00 22.5 2 Nordeste 7 Este 0 -- -- 44
2020-07-28 01:00:00 25 3 Nordeste 18 Oeste 0 -- -- 36
2020-07-28 00:00:00 29.9 8 Oeste 26 Oeste 0 -- -- 26
2020-07-27 23:00:00 31.2 8 Oeste 27 Oeste 0 -- -- 25
2020-07-27 22:00:00 32.1 14 Oeste 31 Noroeste 0 -- -- 23
2020-07-27 21:00:00 33.7 10 Sur 21 Sur 0 -- -- 23
2020-07-27 20:00:00 36.3 6 Oeste 30 Sudoeste 0 -- -- 20
2020-07-27 19:00:00 37.1 17 Sudoeste 34 Sudoeste 0 -- -- 17
2020-07-27 18:00:00 38.2 14 Sudoeste 28 Sudoeste 0 -- -- 15
2020-07-27 17:00:00 38.3 15 Sudoeste 31 Oeste 0 -- -- 20
2020-07-27 16:00:00 38 13 Sur 32 Sur 0 -- -- 20
2020-07-27 15:00:00 37.8 13 Sur 30 Sudoeste 0 -- -- 19
2020-07-27 14:00:00 37.4 10 Sudoeste 21 Sur 0 -- -- 19
2020-07-27 13:00:00 35.9 10 Sur 22 Sudeste 0 -- -- 23
2020-07-27 12:00:00 34.9 8 Sur 15 Sudeste 0 -- -- 24
2020-07-27 09:00:00 -- -- -- -- -- -- -- -- --
2020-07-27 08:00:00 -- -- -- -- -- -- -- -- --
2020-07-27 07:00:00 -- -- -- -- -- -- -- -- --
2020-07-27 06:00:00 -- -- -- -- -- -- -- -- --
2020-07-27 05:00:00 23 3 Norte 8 Nordeste 0 -- -- 43
2020-07-27 04:00:00 25.2 3 Noroeste 14 Sudeste 0 -- -- 37
2020-07-27 03:00:00 26.4 4 Noroeste 10 Nordeste 0 -- -- 31
2020-07-27 02:00:00 25.5 3 Nordeste 15 Norte 0 -- -- 33
2020-07-27 01:00:00 24.5 3 Nordeste 5 Nordeste 0 -- -- 40
2020-07-27 00:00:00 26.2 2 Norte 5 Nordeste 0 -- -- 35
2020-07-26 23:00:00 27.9 0 Calma 9 Nordeste 0 -- -- 32
2020-07-26 22:00:00 32.4 4 Nordeste 18 Sudoeste 0 -- -- 26
2020-07-26 21:00:00 36 9 Sudoeste 18 Sudoeste 0 -- -- 20
2020-07-26 20:00:00 39 5 Sur 15 Sudoeste 0 -- -- 16
2020-07-26 19:00:00 39.7 10 Sur 21 Sur 0 -- -- 16
2020-07-26 18:00:00 39.9 4 Sur 28 Sur 0 -- -- 15
2020-07-26 17:00:00 39.8 10 Oeste 30 Sur 0 -- -- 16
2020-07-26 16:00:00 39.3 9 Sur 25 Sur 0 -- -- 16
2020-07-26 15:00:00 39.2 10 Sur 24 Sudeste 0 -- -- 18
2020-07-26 14:00:00 37.8 6 Sur 22 Sur 0 -- -- 19
2020-07-26 13:00:00 37 4 Sudeste 18 Sur 0 -- -- 21
2020-07-26 12:00:00 35.8 6 Sur 13 Sur 0 -- -- 22
2020-07-26 11:00:00 33.3 3 Sur 9 Sur 0 -- -- 24
2020-07-26 10:00:00 30.1 3 Sudeste 6 Sur 0 -- -- 30
2020-07-26 09:00:00 24.3 0 Calma 5 Este 0 -- -- 48
2020-07-26 08:00:00 19 0 Calma 4 Este 0 -- -- 49
2020-07-26 07:00:00 18.9 0 Calma 3 Nordeste 0 -- -- 47
2020-07-26 06:00:00 19.5 0 Calma 5 Nordeste 0 -- -- 50
2020-07-26 05:00:00 20.5 0 Calma 5 Nordeste 0 -- -- 44
2020-07-26 04:00:00 22.2 0 Calma 4 Nordeste 0 -- -- 43
2020-07-26 03:00:00 23 0 Calma 8 Norte 0 -- -- 41
2020-07-26 02:00:00 26.1 5 Norte 9 Norte 0 -- -- 33
2020-07-26 01:00:00 26.1 4 Nordeste 9 Nordeste 0 -- -- 32
2020-07-26 00:00:00 24.8 2 Noroeste 6 Nordeste 0 -- -- 38
2020-07-25 23:00:00 25.5 4 Norte 13 Sudoeste 0 -- -- 31
2020-07-25 22:00:00 28.6 5 Norte 16 Sudoeste 0 -- -- 27
2020-07-25 21:00:00 32.9 2 Sudoeste 18 Noroeste 0 -- -- 21
2020-07-25 20:00:00 37.6 5 Oeste 19 Sur 0 -- -- 14
2020-07-25 19:00:00 37.9 7 Oeste 23 Sudeste 0 -- -- 15
2020-07-25 18:00:00 38 6 Sudeste 20 Sur 0 -- -- 15
2020-07-25 17:00:00 37.7 8 Sur 27 Sur 0 -- -- 16
2020-07-25 16:00:00 37.5 9 Sudoeste 28 Sudoeste 0 -- -- 17
2020-07-25 15:00:00 37.1 14 Sudoeste 29 Sudoeste 0 -- -- 19
2020-07-25 14:00:00 36.7 14 Sudoeste 25 Sudoeste 0 -- -- 20
2020-07-25 13:00:00 35.4 8 Sudeste 26 Sur 0 -- -- 22
2020-07-25 12:00:00 34.4 6 Sudeste 13 Este 0 -- -- 23
2020-07-25 11:00:00 32.1 8 Sur 12 Sur 0 -- -- 26
2020-07-25 10:00:00 29.1 2 Sudeste 6 Sur 0 -- -- 31
2020-07-25 09:00:00 23.2 0 Calma 4 Este 0 -- -- 50
2020-07-25 08:00:00 18.8 0 Calma 4 Nordeste 0 -- -- 51
2020-07-25 07:00:00 18.7 0 Calma 4 Nordeste 0 -- -- 49
2020-07-25 06:00:00 19 0 Calma 4 Nordeste 0 -- -- 49
2020-07-25 05:00:00 19.5 0 Calma 4 Oeste 0 -- -- 45
2020-07-25 04:00:00 20.6 0 Calma 3 Nordeste 0 -- -- 46
2020-07-25 03:00:00 22 0 Calma 9 Noroeste 0 -- -- 42
2020-07-25 02:00:00 22 0 Calma 2 Nordeste -- -- -- 45
2020-07-25 01:00:00 22.6 0 Calma 4 Nordeste 0 -- -- 44
2020-07-25 00:00:00 24 0 Calma 5 Nordeste 0 -- -- 44
2020-07-24 23:00:00 26.2 0 Calma 8 Norte 0 -- -- 41
2020-07-24 22:00:00 28.1 2 Este 9 Nordeste 0 -- -- 32
2020-07-24 21:00:00 32.5 4 Sur 14 Sur 0 -- -- 26
2020-07-24 20:00:00 34.4 4 Sur 20 Sudoeste 0 -- -- 24
2020-07-24 19:00:00 36.2 9 Sudoeste 28 Sudoeste 0 -- -- 23
2020-07-24 18:00:00 37.1 5 Sudeste 19 Sudoeste 0 -- -- 22
2020-07-24 17:00:00 37.4 14 Sudoeste 27 Sur 0 -- -- 23
2020-07-24 16:00:00 37.2 14 Sudoeste 27 Sudoeste 0 -- -- 23
2020-07-24 15:00:00 36.6 6 Sudeste 29 Sudoeste 0 -- -- 24
2020-07-24 14:00:00 35.4 9 Sudeste 23 Oeste 0 -- -- 26
2020-07-24 13:00:00 34.7 12 Sudoeste 20 Sudoeste 0 -- -- 28
2020-07-24 12:00:00 32.7 8 Sudeste 15 Sudoeste 0 -- -- 33
2020-07-24 11:00:00 30.2 6 Sudeste 10 Sudeste 0 -- -- 36
2020-07-24 10:00:00 28.1 2 Sur 5 Sur 0 -- -- 39
2020-07-24 09:00:00 23.2 0 Calma 2 Nordeste 0 -- -- 56
2020-07-24 08:00:00 18.5 0 Calma 5 Nordeste 0 -- -- 64
2020-07-24 07:00:00 18.8 0 Calma 3 Sudoeste 0 -- -- 62
2020-07-24 06:00:00 19.7 2 Nordeste 7 Nordeste 0 -- -- 57
2020-07-24 05:00:00 20.3 0 Calma 3 Este 0 -- -- 55
2020-07-24 04:00:00 21.1 0 Calma 4 Nordeste 0 -- -- 57
2020-07-24 03:00:00 22 0 Calma 10 Nordeste 0 -- -- 50
2020-07-24 02:00:00 21.6 0 Calma 5 Nordeste 0 -- -- 51
2020-07-24 01:00:00 22.4 0 Calma 4 Nordeste 0 -- -- 47
2020-07-24 00:00:00 24.2 0 Calma 6 Este 0 -- -- 48
2020-07-23 23:00:00 26.3 3 Norte 11 Sudoeste 0 -- -- 40
2020-07-23 22:00:00 27.8 0 Calma 7 Nordeste 0 -- -- 35
2020-07-23 21:00:00 32.2 2 Nordeste 13 Oeste 0 -- -- 29
2020-07-23 20:00:00 35.7 5 Noroeste 15 Oeste 0 -- -- 22
2020-07-23 19:00:00 35.2 3 Nordeste 23 Sudoeste 0 -- -- 25
2020-07-23 18:00:00 35.5 7 Sur 17 Nordeste 0 -- -- 24
2020-07-23 17:00:00 35.8 6 Noroeste 20 Sudoeste 0 -- -- 24
2020-07-23 16:00:00 35.3 6 Nordeste 22 Nordeste 0 -- -- 26
2020-07-23 15:00:00 36 9 Sudoeste 21 Oeste 0 -- -- 24
2020-07-23 14:00:00 34.4 10 Este 20 Este 0 -- -- 29
2020-07-23 13:00:00 33.8 8 Sudoeste 28 Oeste 0 -- -- 29
2020-07-23 12:00:00 31.8 8 Sudeste 13 Sudeste 0 -- -- 34
2020-07-23 11:00:00 29.7 7 Sur 11 Sur 0 -- -- 38
2020-07-23 10:00:00 26.8 6 Sudeste 11 Sudeste 0 -- -- 44
2020-07-23 09:00:00 25.5 3 Sudoeste 6 Noroeste 0 -- -- 50
2020-07-23 08:00:00 22.5 4 Norte 9 Noroeste 0 -- -- 54
2020-07-23 07:00:00 21.6 0 Calma 11 Este 0 -- -- 55
2020-07-23 06:00:00 23.6 5 Nordeste 14 Nordeste 0 -- -- 49
2020-07-23 05:00:00 23.7 8 Nordeste 14 Nordeste 0 -- -- 49
2020-07-23 04:00:00 22.9 4 Noroeste 10 Oeste 0 -- -- 51
2020-07-23 03:00:00 21.6 3 Noroeste 7 Noroeste 0 -- -- 55
2020-07-23 02:00:00 22.7 3 Oeste 6 Oeste 0 -- -- 51
2020-07-23 01:00:00 22.4 0 Calma 3 Oeste 0 -- -- 50
2020-07-23 00:00:00 24.7 0 Calma 12 Este 0 -- -- 43
2020-07-22 23:00:00 25.2 3 Nordeste 5 Nordeste 0 -- -- 42
2020-07-22 22:00:00 26.6 4 Nordeste 7 Nordeste 0 -- -- 38
2020-07-22 21:00:00 30 3 Oeste 17 Norte 0 -- -- 33
2020-07-22 20:00:00 32.2 6 Oeste 17 Noroeste 0 -- -- 28
2020-07-22 19:00:00 32.4 5 Norte 22 Norte 0 -- -- 27
2020-07-22 18:00:00 32.7 5 Nordeste 27 Oeste 0 -- -- 27
2020-07-22 17:00:00 32.5 5 Sur 21 Sudoeste 0 -- -- 26
2020-07-22 16:00:00 32.7 6 Noroeste 21 Oeste 0 -- -- 26
2020-07-22 15:00:00 30.5 9 Oeste 21 Sudoeste 0 -- -- 32
2020-07-22 14:00:00 31 10 Sudoeste 32 Oeste 0 -- -- 33
2020-07-22 13:00:00 28.7 5 Oeste 24 Sudoeste 0 -- -- 37
2020-07-22 12:00:00 29.4 8 Sudoeste 21 Sudoeste 0 -- -- 39
2020-07-22 11:00:00 27.7 9 Sudoeste 16 Sudoeste 0 -- -- 42
2020-07-22 10:00:00 25.7 6 Sudeste 12 Sudeste 0 -- -- 48
2020-07-22 09:00:00 22.1 0 Calma 3 Este 0 -- -- 65
2020-07-22 08:00:00 18.1 0 Calma 4 Nordeste 0 -- -- 74
2020-07-22 07:00:00 18.6 0 Calma 4 Sudoeste 0 -- -- 70
2020-07-22 06:00:00 20.5 0 Calma 5 Nordeste 0 -- -- 65
2020-07-22 05:00:00 22.3 0 Calma 18 Oeste 0 -- -- 61
2020-07-22 04:00:00 22.8 5 Oeste 15 Oeste 0 -- -- 59
2020-07-22 03:00:00 21.8 3 Noroeste 9 Sudoeste 0 -- -- 60
2020-07-22 02:00:00 21.7 0 Calma 13 Sudeste 0 -- -- 57
2020-07-22 01:00:00 22.7 6 Este 12 Este 0 -- -- 51
2020-07-22 00:00:00 23.1 3 Nordeste 8 Oeste 0 -- -- 48
2020-07-21 23:00:00 23.9 5 Este 12 Nordeste 0 -- -- 46
2020-07-21 22:00:00 27 3 Norte 12 Nordeste 0 -- -- 37
2020-07-21 21:00:00 30.7 7 Oeste 23 Noroeste 0 -- -- 30
2020-07-21 20:00:00 33.5 7 Noroeste 17 Oeste 0 -- -- 27
2020-07-21 19:00:00 34 9 Nordeste 19 Este 0 -- -- 25
2020-07-21 18:00:00 33.6 7 Nordeste 22 Nordeste 0 -- -- 26
2020-07-21 17:00:00 33.3 5 Oeste 18 Nordeste 0 -- -- 27
2020-07-21 16:00:00 34.7 8 Nordeste 23 Nordeste 0 -- -- 22
2020-07-21 15:00:00 34.3 6 Oeste 25 Nordeste 0 -- -- 25
2020-07-21 14:00:00 33.3 16 Nordeste 31 Nordeste 0 -- -- 26
2020-07-21 13:00:00 27.5 5 Sudoeste 26 Norte 0 -- -- 46
2020-07-21 12:00:00 22.2 14 Nordeste 34 Nordeste 0.2 -- -- 60
2020-07-21 11:00:00 25.1 3 Oeste 10 Oeste 0 -- -- 47
2020-07-21 10:00:00 26.2 4 Noroeste 11 Oeste 0 -- -- 44
2020-07-21 09:00:00 23.7 4 Norte 9 Nordeste 0 -- -- 50
2020-07-21 08:00:00 21.8 2 Nordeste 6 Nordeste 0 -- -- 50
2020-07-21 07:00:00 21.1 0 Calma 6 Nordeste 0 -- -- 55
2020-07-21 06:00:00 21.1 2 Nordeste 5 Nordeste 0 -- -- 54
2020-07-21 05:00:00 20.6 0 Calma 5 Nordeste 0 -- -- 51
2020-07-21 04:00:00 21 2 Nordeste 6 Nordeste 0 -- -- 51
2020-07-21 03:00:00 21.2 0 Calma 4 Nordeste 0 -- -- 47
2020-07-21 02:00:00 22.4 0 Calma 5 Nordeste 0 -- -- 45
2020-07-21 01:00:00 23.1 3 Nordeste 5 Este 0 -- -- 41
2020-07-21 00:00:00 23.3 2 Noroeste 5 Nordeste 0 -- -- 42
2020-07-20 23:00:00 25 0 Calma 7 Nordeste 0 -- -- 37
2020-07-20 22:00:00 27.8 0 Calma 8 Norte 0 -- -- 39
2020-07-20 21:00:00 32.1 3 Nordeste 9 Nordeste 0 -- -- 26
2020-07-20 20:00:00 34.5 4 Nordeste 19 Oeste 0 -- -- 21
2020-07-20 19:00:00 37.9 6 Noroeste 16 Oeste 0 -- -- 17
2020-07-20 18:00:00 37.6 5 Norte 22 Oeste 0 -- -- 17
2020-07-20 17:00:00 37.4 9 Sur 21 Sur 0 -- -- 18
2020-07-20 16:00:00 35.7 6 Sur 19 Sur 0 -- -- 21
2020-07-20 15:00:00 36.1 8 Sudeste 22 Oeste 0 -- -- 22
2020-07-20 14:00:00 35.6 9 Sudeste 20 Sudeste 0 -- -- 23
2020-07-20 13:00:00 34.7 9 Sur 16 Sudoeste 0 -- -- 23
2020-07-20 12:00:00 33.9 6 Sudeste 14 Sur 0 -- -- 19
2020-07-20 11:00:00 32 5 Sur 10 Sur 0 -- -- 26
2020-07-20 10:00:00 28.3 0 Calma 4 Este 0 -- -- 31
2020-07-20 09:00:00 21.9 0 Calma 5 Nordeste 0 -- -- 43
2020-07-20 08:00:00 18.1 0 Calma 4 Nordeste 0 -- -- 49
2020-07-20 07:00:00 18.4 0 Calma 6 Nordeste 0 -- -- 45
2020-07-20 06:00:00 18.6 2 Nordeste 5 Nordeste 0 -- -- 41
2020-07-20 05:00:00 18.6 0 Calma 4 Nordeste 0 -- -- 40
2020-07-20 04:00:00 19 0 Calma 6 Nordeste 0 -- -- 37
2020-07-20 03:00:00 19.6 0 Calma 4 Este 0 -- -- 35
2020-07-20 02:00:00 20.3 0 Calma 2 Norte 0 -- -- 32
2020-07-20 01:00:00 22.3 0 Calma 6 Noroeste 0 -- -- 29
2020-07-20 00:00:00 24.2 4 Norte 10 Norte 0 -- -- 28
2020-07-19 23:00:00 23.7 0 Calma 5 Nordeste 0 -- -- 27
2020-07-19 22:00:00 27.2 0 Calma 7 Este 0 -- -- 24
2020-07-19 21:00:00 32.8 3 Nordeste 18 Oeste 0 -- -- 17
2020-07-19 20:00:00 36.3 8 Oeste 23 Oeste 0 -- -- 14
2020-07-19 19:00:00 37 10 Oeste 33 Oeste 0 -- -- 15
2020-07-19 18:00:00 37.1 9 Oeste 33 Sudoeste 0 -- -- 17
2020-07-19 17:00:00 36.7 10 Oeste 41 Sur 0 -- -- 18
2020-07-19 16:00:00 35.9 12 Sudoeste 34 Sudoeste 0 -- -- 24
2020-07-19 15:00:00 35.4 14 Sudoeste 30 Sudoeste 0 -- -- 27
2020-07-19 14:00:00 34.7 13 Sudoeste 25 Sudoeste 0 -- -- 28
2020-07-19 13:00:00 33 8 Sudeste 19 Sur 0 -- -- 34
2020-07-19 12:00:00 31.2 8 Sur 17 Sudeste 0 -- -- 37
2020-07-19 11:00:00 29.3 6 Sur 11 Sur 0 -- -- 36
2020-07-19 10:00:00 26.1 4 Sudeste 8 Sur 0 -- -- 54
2020-07-19 09:00:00 22.5 2 Nordeste 7 Nordeste 0 -- -- 63
2020-07-19 08:00:00 17.9 0 Calma 5 Nordeste 0 -- -- 74
2020-07-19 07:00:00 18 2 Este 8 Nordeste 0 -- -- 71
2020-07-19 06:00:00 18.6 0 Calma 6 Nordeste 0 -- -- 69
2020-07-19 05:00:00 19.5 0 Calma 6 Nordeste 0 -- -- 66
2020-07-19 04:00:00 20.7 3 Noroeste 8 Nordeste 0 -- -- 63
2020-07-19 03:00:00 21.4 0 Calma 10 Nordeste 0 -- -- 61
2020-07-19 02:00:00 22.4 0 Calma 5 Nordeste 0 -- -- 56
2020-07-19 01:00:00 23.8 0 Calma 4 Sudoeste 0 -- -- 52
2020-07-19 00:00:00 25.5 2 Nordeste 9 Nordeste 0 -- -- 47
2020-07-18 23:00:00 28.4 4 Nordeste 34 Sudoeste 0 -- -- 39
2020-07-18 22:00:00 31.2 8 Sudoeste 31 Sudoeste 0 -- -- 33
2020-07-18 21:00:00 32.5 12 Sudoeste 23 Sudoeste 0 -- -- 30
2020-07-18 20:00:00 34.9 15 Sudoeste 26 Sudoeste 0 -- -- 27
2020-07-18 19:00:00 36.5 6 Oeste 25 Oeste 0 -- -- 24
2020-07-18 18:00:00 37.9 8 Oeste 29 Oeste 0 -- -- 17
2020-07-18 17:00:00 37.5 10 Oeste 32 Oeste 0 -- -- 19
2020-07-18 16:00:00 37 8 Norte 27 Oeste 0 -- -- 20
2020-07-18 15:00:00 36.4 9 Oeste 25 Oeste 0 -- -- 23
2020-07-18 14:00:00 34.5 9 Oeste 19 Sudoeste 0 -- -- 29
2020-07-18 13:00:00 32.3 5 Este 15 Sudeste 0 -- -- 34
2020-07-18 12:00:00 30.9 5 Sur 16 Sur 0 -- -- 38
2020-07-18 11:00:00 29.2 6 Sudeste 10 Sur 0 -- -- 40
2020-07-18 10:00:00 27.2 4 Sudeste 8 Sudeste 0 -- -- 45
2020-07-18 09:00:00 22.4 0 Calma 4 Nordeste 0 -- -- 54
2020-07-18 08:00:00 16.9 0 Calma 6 Nordeste 0 -- -- 58
2020-07-18 07:00:00 17.1 0 Calma 8 Nordeste 0 -- -- 54
2020-07-18 06:00:00 17.8 0 Calma 3 Este 0 -- -- 50
2020-07-18 05:00:00 18.7 0 Calma 8 Nordeste 0 -- -- 45
2020-07-18 04:00:00 20.1 3 Nordeste 6 Este 0 -- -- 40
2020-07-18 03:00:00 20.5 0 Calma 5 Este 0 -- -- 39
2020-07-18 02:00:00 22.3 0 Calma 5 Nordeste 0 -- -- 38
2020-07-18 01:00:00 24.5 0 Calma 10 Nordeste 0 -- -- 35
2020-07-18 00:00:00 29.1 5 Nordeste 14 Nordeste 0 -- -- 27
2020-07-17 23:00:00 29 5 Nordeste 9 Norte 0 -- -- 29
2020-07-17 22:00:00 29.8 6 Norte 9 Nordeste 0 -- -- 26
2020-07-17 21:00:00 32.7 2 Oeste 13 Oeste 0 -- -- 25
2020-07-17 20:00:00 36.2 7 Oeste 21 Sudoeste 0 -- -- 19
2020-07-17 19:00:00 37.2 9 Oeste 20 Oeste 0 -- -- 19
2020-07-17 18:00:00 37.6 7 Oeste 24 Oeste 0 -- -- 20
2020-07-17 17:00:00 37 12 Oeste 27 Oeste 0 -- -- 22
2020-07-17 16:00:00 37.1 6 Noroeste 22 Oeste 0 -- -- 20
2020-07-17 15:00:00 36.3 8 Oeste 21 Oeste 0 -- -- 22
2020-07-17 14:00:00 35.5 6 Nordeste 23 Sudoeste 0 -- -- 22
2020-07-17 13:00:00 33.8 9 Sudeste 20 Este 0 -- -- 24
2020-07-17 12:00:00 32 10 Sudeste 23 Sudoeste 0 -- -- 25
2020-07-17 11:00:00 30.5 5 Este 10 Sur 0 -- -- 27
2020-07-17 10:00:00 28.5 4 Sudeste 9 Sur 0 -- -- 29
2020-07-17 09:00:00 23.7 4 Este 8 Este 0 -- -- 44
2020-07-17 08:00:00 18.5 0 Calma 5 Sudoeste 0 -- -- 57
2020-07-17 07:00:00 18.2 2 Norte 4 Nordeste 0 -- -- 55
2020-07-17 06:00:00 18.4 2 Oeste 4 Sudeste 0 -- -- 55
2020-07-17 05:00:00 18.6 0 Calma 4 Nordeste 0 -- -- 54
2020-07-17 04:00:00 19.5 2 Norte 6 Nordeste 0 -- -- 55
2020-07-17 03:00:00 20.3 0 Calma 4 Sudoeste 0 -- -- 51
2020-07-17 02:00:00 21.4 0 Calma 5 Nordeste 0 -- -- 48
2020-07-17 01:00:00 22.8 0 Calma 5 Nordeste 0 -- -- 46
2020-07-17 00:00:00 24.9 2 Nordeste 14 Nordeste 0 -- -- 39
2020-07-16 23:00:00 28.3 5 Norte 15 Norte 0 -- -- 29
2020-07-16 22:00:00 28.9 5 Nordeste 12 Nordeste 0 -- -- 30
2020-07-16 21:00:00 32 5 Nordeste 14 Este 0 -- -- 26
2020-07-16 20:00:00 34.8 5 Nordeste 19 Este 0 -- -- 24
2020-07-16 19:00:00 35.2 8 Nordeste 21 Este 0 -- -- 23
2020-07-16 18:00:00 36.5 6 Oeste 22 Oeste 0 -- -- 24
2020-07-16 17:00:00 35.7 7 Nordeste 19 Oeste 0 -- -- 24
2020-07-16 16:00:00 36.1 6 Oeste 20 Sudoeste 0 -- -- 26
2020-07-16 15:00:00 34.1 8 Sudoeste 15 Sudoeste 0 -- -- 29
2020-07-16 14:00:00 32.1 2 Sur 24 Sudoeste 0 -- -- 32
2020-07-16 13:00:00 33.1 9 Sudoeste 17 Sur 0 -- -- 34
2020-07-16 12:00:00 31.7 6 Sur 17 Sur 0 -- -- 40
2020-07-16 11:00:00 29.7 4 Sudeste 10 Sur 0 -- -- 44
2020-07-16 10:00:00 27.9 5 Sur 9 Sudeste 0 -- -- 49
2020-07-16 09:00:00 24 0 Calma 3 Este 0 -- -- 63
2020-07-16 08:00:00 19.3 0 Calma 4 Este 0 -- -- 75
2020-07-16 07:00:00 19.1 0 Calma 4 Nordeste 0 -- -- 72
2020-07-16 06:00:00 19.7 2 Nordeste 4 Este 0 -- -- 68
2020-07-16 05:00:00 20.4 2 Nordeste 5 Nordeste 0 -- -- 64
2020-07-16 04:00:00 21.2 0 Calma 6 Este 0 -- -- 62
2020-07-16 03:00:00 22.7 2 Norte 8 Nordeste 0 -- -- 55
2020-07-16 02:00:00 25 2 Norte 17 Norte 0 -- -- 46
2020-07-16 01:00:00 27.4 10 Nordeste 26 Nordeste 0 -- -- 38
2020-07-16 00:00:00 27.6 11 Nordeste 23 Nordeste 0 -- -- 37
2020-07-15 23:00:00 27.5 9 Nordeste 18 Nordeste 0 -- -- 39
2020-07-15 22:00:00 27.4 5 Nordeste 12 Nordeste 0 -- -- 44
2020-07-15 21:00:00 30.4 3 Nordeste 13 Nordeste 0 -- -- 37
2020-07-15 20:00:00 32 6 Nordeste 15 Nordeste 0 -- -- 34
2020-07-15 19:00:00 33.7 7 Nordeste 15 Este 0 -- -- 31
2020-07-15 18:00:00 33.2 6 Sudoeste 14 Nordeste 0 -- -- 30
2020-07-15 17:00:00 32.8 6 Este 19 Sur 0 -- -- 32
2020-07-15 16:00:00 33.8 8 Sur 17 Sudoeste 0 -- -- 31
2020-07-15 15:00:00 32.1 6 Sudoeste 18 Sudeste 0 -- -- 35
2020-07-15 14:00:00 31.3 5 Sur 19 Sudeste 0 -- -- 37
2020-07-15 13:00:00 30.1 7 Sudoeste 15 Sur 0 -- -- 40
2020-07-15 12:00:00 28.7 8 Sudeste 16 Sudeste 0 -- -- 47
2020-07-15 11:00:00 27.2 4 Sur 12 Sudeste 0 -- -- 51
2020-07-15 10:00:00 25.8 4 Sur 6 Sur 0 -- -- 53
2020-07-15 09:00:00 21.6 0 Calma 4 Nordeste 0 -- -- 76
2020-07-15 08:00:00 16.8 0 Calma 4 Nordeste 0 -- -- 89
2020-07-15 07:00:00 16.3 0 Calma 4 Nordeste 0 -- -- 88
2020-07-15 06:00:00 16.7 0 Calma 4 Nordeste 0 -- -- 86
2020-07-15 05:00:00 17.1 0 Calma 5 Nordeste 0 -- -- 87
2020-07-15 04:00:00 17.3 0 Calma 4 Sudoeste 0 -- -- 86
2020-07-15 03:00:00 17.7 2 Norte 4 Nordeste 0 -- -- 86
2020-07-15 02:00:00 18.5 3 Este 5 Este 0 -- -- 84
2020-07-15 01:00:00 19.8 0 Calma 9 Sudeste 0 -- -- 79
2020-07-15 00:00:00 22.3 5 Sudeste 11 Sur 0 -- -- 67
2020-07-14 23:00:00 23.4 2 Nordeste 12 Sur 0 -- -- 69
2020-07-14 22:00:00 23.9 2 Noroeste 5 Sudoeste 0 -- -- 71
2020-07-14 21:00:00 26.9 0 Calma 6 Sur 0 -- -- 60
2020-07-14 20:00:00 28.1 5 Sur 22 Sudoeste 0 -- -- 50
2020-07-14 19:00:00 24.8 3 Oeste 9 Oeste 0 -- -- 65
2020-07-14 18:00:00 21.7 4 Nordeste 41 Sudoeste 1.2 -- -- 82
2020-07-14 17:00:00 24.9 8 Este 40 Sudoeste 2.6 -- -- 61
2020-07-14 16:00:00 31.6 4 Sudeste 24 Sudoeste 0 -- -- 34
2020-07-14 15:00:00 32.6 9 Sur 17 Sur 0 -- -- 32
2020-07-14 14:00:00 30.7 6 Sur 18 Sur 0 -- -- 37
2020-07-14 13:00:00 30.3 8 Este 18 Sudoeste 0 -- -- 37
2020-07-14 12:00:00 29.1 7 Sur 17 Este 0 -- -- 40
2020-07-14 11:00:00 27.2 5 Sudeste 14 Sudeste 0 -- -- 44
2020-07-14 10:00:00 24.9 4 Sudeste 12 Sudeste 0 -- -- 51
2020-07-14 09:00:00 23.6 4 Sudeste 10 Sudeste 0 -- -- 56
2020-07-14 08:00:00 18.3 0 Calma 3 Nordeste 0 -- -- 77
2020-07-14 07:00:00 18.5 0 Calma 3 Este 0 -- -- 75
2020-07-14 06:00:00 19.3 0 Calma 4 Este 0 -- -- 72
2020-07-14 05:00:00 20.3 0 Calma 3 Este 0 -- -- 70
2020-07-14 04:00:00 20.7 0 Calma 3 Nordeste 0 -- -- 67
2020-07-14 03:00:00 21.3 0 Calma 5 Nordeste 0 -- -- 59
2020-07-14 02:00:00 22.2 0 Calma 4 Nordeste 0 -- -- 55
2020-07-14 01:00:00 23.1 0 Calma 4 Este 0 -- -- 52
2020-07-14 00:00:00 24.7 0 Calma 5 Nordeste 0 -- -- 48
2020-07-13 23:00:00 26.4 0 Calma 7 Nordeste 0 -- -- 47
2020-07-13 22:00:00 28.6 2 Este 7 Este 0 -- -- 38
2020-07-13 21:00:00 31.5 0 Calma 7 Oeste 0 -- -- 32
2020-07-13 20:00:00 33.8 5 Oeste 18 Oeste 0 -- -- 28
2020-07-13 19:00:00 35.4 12 Sudoeste 19 Sudoeste 0 -- -- 25
2020-07-13 18:00:00 35.7 7 Sudoeste 15 Sudoeste -- -- -- 25
2020-07-13 17:00:00 34.7 7 Este 15 Sudoeste 0 -- -- 28
2020-07-13 16:00:00 34.4 8 Oeste 18 Sudoeste 0 -- -- 27
2020-07-13 15:00:00 33.2 12 Este 23 Sudoeste 0 -- -- 30
2020-07-13 14:00:00 33.3 6 Nordeste 21 Sur 0 -- -- 30
2020-07-13 13:00:00 31.5 4 Sur 14 Sudeste 0 -- -- 37
2020-07-13 12:00:00 30.1 5 Sur 13 Sudeste 0 -- -- 42
2020-07-13 11:00:00 27.8 5 Sur 13 Sudoeste 0 -- -- 49
2020-07-13 10:00:00 25.7 5 Sudeste 9 Sudeste 0 -- -- 56
2020-07-13 09:00:00 22.7 0 Calma 3 Este 0 -- -- 69
2020-07-13 08:00:00 18.2 0 Calma 4 Nordeste 0 -- -- 79
2020-07-13 07:00:00 18.1 0 Calma 3 Nordeste 0 -- -- 76
2020-07-13 06:00:00 18.7 0 Calma 4 Nordeste 0 -- -- 72
2020-07-13 05:00:00 19.7 0 Calma 4 Este 0 -- -- 66
2020-07-13 04:00:00 20.9 2 Nordeste 8 Sudeste 0 -- -- 56
2020-07-13 03:00:00 24.1 3 Nordeste 17 Nordeste 0 -- -- 49
2020-07-13 02:00:00 23.5 4 Norte 10 Noroeste 0 -- -- 44
2020-07-13 01:00:00 24.3 2 Este 5 Este 0 -- -- 39
2020-07-13 00:00:00 23.3 3 Nordeste 7 Nordeste 0 -- -- 39
2020-07-12 23:00:00 24.6 0 Calma 10 Nordeste 0 -- -- 40
2020-07-12 22:00:00 26.8 3 Noroeste 7 Nordeste 0 -- -- 39
2020-07-12 21:00:00 31.4 3 Oeste 18 Oeste 0 -- -- 27
2020-07-12 20:00:00 34.8 6 Oeste 20 Sur 0 -- -- 23
2020-07-12 19:00:00 35.6 9 Sur 24 Sudoeste 0 -- -- 23
2020-07-12 18:00:00 35.3 17 Sudoeste 35 Sudoeste -- -- -- 23
2020-07-12 17:00:00 35.8 12 Oeste 32 Sudoeste 0 -- -- 24
2020-07-12 16:00:00 35.7 15 Sudoeste 27 Sudoeste 0 -- -- 24
2020-07-12 15:00:00 35 11 Sur 25 Sudeste 0 -- -- 25
2020-07-12 14:00:00 34.1 10 Sudoeste 23 Sudoeste 0 -- -- 26
2020-07-12 13:00:00 33.3 9 Sudoeste 22 Oeste 0 -- -- 27
2020-07-12 12:00:00 31.6 8 Oeste 24 Sudoeste 0 -- -- 30
2020-07-12 11:00:00 30.1 8 Oeste 18 Sur 0 -- -- 34
2020-07-12 10:00:00 28.4 12 Sudoeste 28 Sudoeste 0 -- -- 35
2020-07-12 09:00:00 24.7 6 Sudoeste 14 Oeste 0 -- -- 43
2020-07-12 08:00:00 20.5 2 Nordeste 13 Este 0 -- -- 59
2020-07-12 07:00:00 20.9 4 Nordeste 21 Sudoeste 0 -- -- 54
2020-07-12 06:00:00 21.1 3 Nordeste 10 Nordeste 0 -- -- 52
2020-07-12 05:00:00 21.3 4 Nordeste 11 Este 0 -- -- 56
2020-07-12 04:00:00 22.1 3 Noroeste 8 Norte 0 -- -- 49
2020-07-12 03:00:00 23.9 3 Este 11 Nordeste 0 -- -- 43
2020-07-12 02:00:00 25.6 2 Norte 29 Oeste 0 -- -- 40
2020-07-12 01:00:00 25.3 9 Sudoeste 26 Sudoeste 0 -- -- 38
2020-07-12 00:00:00 26.8 7 Este 21 Sudeste 0 -- -- 35
2020-07-11 23:00:00 26.2 4 Nordeste 12 Nordeste 0 -- -- 39
2020-07-11 22:00:00 29.5 2 Noroeste 18 Sudoeste 0 -- -- 31
2020-07-11 21:00:00 32.8 8 Sudoeste 26 Sudoeste 0 -- -- 26
2020-07-11 20:00:00 35.1 10 Sudoeste 22 Sudoeste 0 -- -- 22
2020-07-11 19:00:00 36.1 7 Sudoeste 24 Sur 0 -- -- 21
2020-07-11 18:00:00 37 8 Este 31 Sudeste 0 -- -- 18
2020-07-11 17:00:00 37 10 Sur 25 Sudeste 0 -- -- 16
2020-07-11 16:00:00 36.3 10 Sudeste 22 Sudeste 0 -- -- 19
2020-07-11 15:00:00 36 11 Sudoeste 30 Sudoeste 0 -- -- 20
2020-07-11 14:00:00 34.9 11 Sudeste 24 Sur 0 -- -- 22
2020-07-11 13:00:00 34 11 Sur 22 Sur 0 -- -- 26
2020-07-11 12:00:00 32.5 9 Sur 17 Sur 0 -- -- 29
2020-07-11 11:00:00 30.8 8 Sur 13 Sudoeste 0 -- -- 33
2020-07-11 10:00:00 28.3 3 Este 5 Sudeste 0 -- -- 37
2020-07-11 09:00:00 22.7 0 Calma 2 Oeste 0 -- -- 56
2020-07-11 08:00:00 17.5 0 Calma -- -- 0 -- -- 66
2020-07-11 07:00:00 17.4 0 Calma -- -- 0 -- -- 64
2020-07-11 06:00:00 17.9 0 Calma 2 Oeste 0 -- -- 59
2020-07-11 05:00:00 18.7 0 Calma 5 Nordeste 0 -- -- 54
2020-07-11 04:00:00 20 0 Calma 4 Nordeste 0 -- -- 53
2020-07-11 03:00:00 21.2 0 Calma 5 Nordeste 0 -- -- 48
2020-07-11 02:00:00 22.5 0 Calma 6 Norte 0 -- -- 46
2020-07-11 01:00:00 22.8 0 Calma 5 Sudoeste 0 -- -- 46
2020-07-11 00:00:00 23.5 2 Norte 8 Este 0 -- -- 42
2020-07-10 23:00:00 25.2 2 Nordeste 8 Nordeste 0 -- -- 40
2020-07-10 22:00:00 27.5 2 Nordeste 12 Sudeste 0 -- -- 34
2020-07-10 21:00:00 30.2 0 Calma 4 Noroeste 0 -- -- 37
2020-07-10 20:00:00 33.2 0 Calma 13 Oeste 0 -- -- 25
2020-07-10 19:00:00 35.5 8 Oeste 17 Oeste 0 -- -- 20
2020-07-10 18:00:00 33.8 5 Sudoeste 12 Oeste 0 -- -- 22
2020-07-10 17:00:00 33.8 4 Nordeste 17 Oeste 0 -- -- 22
2020-07-10 16:00:00 34.8 5 Oeste 19 Sur 0 -- -- 22
2020-07-10 15:00:00 34 5 Nordeste 18 Oeste 0 -- -- 25
2020-07-10 14:00:00 33.2 7 Norte 23 Oeste 0 -- -- 25
2020-07-10 13:00:00 32 7 Sudoeste 15 Sudoeste 0 -- -- 28
2020-07-10 12:00:00 29.7 7 Sudeste 13 Sudeste 0 -- -- 34
2020-07-10 11:00:00 27 3 Este 12 Sudeste 0 -- -- 40
2020-07-10 10:00:00 24.4 7 Sudeste 13 Sudeste 0 -- -- 45
2020-07-10 09:00:00 20.6 0 Calma 4 Este 0 -- -- 54
2020-07-10 08:00:00 14.7 2 Este 5 Nordeste 0 -- -- 66
2020-07-10 07:00:00 14.4 0 Calma 3 Nordeste 0 -- -- 64
2020-07-10 06:00:00 15.1 0 Calma 4 Nordeste 0 -- -- 61
2020-07-10 05:00:00 16 0 Calma 4 Este 0 -- -- 60
2020-07-10 04:00:00 17.1 0 Calma 3 Este 0 -- -- 56
2020-07-10 03:00:00 19.5 0 Calma 9 Norte 0 -- -- 55
2020-07-10 02:00:00 22.5 3 Norte 14 Norte -- -- -- 46
2020-07-10 01:00:00 23.2 6 Noroeste 18 Norte 0 -- -- 43
2020-07-10 00:00:00 21.6 5 Noroeste 13 Oeste 0 -- -- 36
2020-07-09 23:00:00 21.6 3 Norte 6 Nordeste 0 -- -- 35
2020-07-09 22:00:00 25 3 Nordeste 14 Sudoeste 0 -- -- 31
2020-07-09 21:00:00 29.7 7 Sudoeste 17 Sudoeste 0 -- -- 21
2020-07-09 20:00:00 33.4 6 Oeste 18 Oeste 0 -- -- 16
2020-07-09 19:00:00 33.4 9 Sudoeste 23 Sudoeste 0 -- -- 16
2020-07-09 18:00:00 33.8 9 Sudoeste 23 Sur 0 -- -- 17
2020-07-09 17:00:00 33.4 12 Sudoeste 24 Sudoeste 0 -- -- 18
2020-07-09 16:00:00 33.4 8 Sudoeste 24 Sudoeste 0 -- -- 21
2020-07-09 15:00:00 32.2 9 Sur 24 Sudoeste 0 -- -- 21
2020-07-09 14:00:00 31.8 9 Sudeste 25 Sur 0 -- -- 24
2020-07-09 13:00:00 30.5 6 Sudeste 21 Sudoeste 0 -- -- 26
2020-07-09 12:00:00 29.2 9 Sudoeste 21 Sudoeste 0 -- -- 26
2020-07-09 11:00:00 28 5 Sudeste 11 Sur 0 -- -- 29
2020-07-09 10:00:00 26 3 Sudeste 9 Este 0 -- -- 34
2020-07-09 09:00:00 21 0 Calma 3 Oeste 0 -- -- 55
2020-07-09 08:00:00 14.5 2 Nordeste 4 Nordeste 0 -- -- 62
2020-07-09 07:00:00 14.5 0 Calma 3 Nordeste 0 -- -- 57
2020-07-09 06:00:00 14.9 0 Calma 6 Oeste 0 -- -- 56
2020-07-09 05:00:00 15.7 2 Nordeste 8 Nordeste 0 -- -- 46
2020-07-09 04:00:00 16.8 0 Calma 5 Nordeste 0 -- -- 50
2020-07-09 03:00:00 18.3 0 Calma 10 Este 0 -- -- 45
2020-07-09 02:00:00 19.6 3 Nordeste 9 Nordeste 0 -- -- 38
2020-07-09 01:00:00 21.8 2 Norte 21 Oeste 0 -- -- 40
2020-07-09 00:00:00 25.7 9 Sudoeste 21 Oeste 0 -- -- 31
2020-07-08 23:00:00 27.8 11 Sudoeste 24 Oeste 0 -- -- 25
2020-07-08 22:00:00 29.5 8 Sur 28 Sudoeste 0 -- -- 27
2020-07-08 21:00:00 30.9 17 Sudoeste 28 Sudoeste 0 -- -- 25
2020-07-08 20:00:00 33.3 18 Sudoeste 31 Sudoeste 0 -- -- 22
2020-07-08 19:00:00 34.6 10 Sudoeste 30 Sur 0 -- -- 19
2020-07-08 18:00:00 32.2 7 Sudoeste 38 Oeste 0 -- -- 22
2020-07-08 17:00:00 32.6 22 Sudoeste 41 Sudoeste 0 -- -- 21
2020-07-08 16:00:00 34.2 21 Sudoeste 35 Sudoeste 0 -- -- 20
2020-07-08 15:00:00 34.6 10 Oeste 33 Sudoeste 0 -- -- 20
2020-07-08 14:00:00 33.9 15 Sudoeste 27 Sudoeste 0 -- -- 21
2020-07-08 13:00:00 34.2 12 Sudoeste 29 Oeste 0 -- -- 22
2020-07-08 12:00:00 35 12 Sur 24 Sur 0 -- -- 22
2020-07-08 11:00:00 33.2 8 Sur 15 Sudoeste 0 -- -- 25
2020-07-08 10:00:00 29.9 3 Sur 8 Sudoeste 0 -- -- 33
2020-07-08 09:00:00 24.4 2 Noroeste 8 Nordeste 0 -- -- 52
2020-07-08 08:00:00 22.1 3 Este 6 Este 0 -- -- 49
2020-07-08 07:00:00 22.9 3 Nordeste 10 Noroeste 0 -- -- 42
2020-07-08 06:00:00 24.2 4 Noroeste 18 Oeste 0 -- -- 37
2020-07-08 05:00:00 22.4 4 Oeste 9 Sudoeste 0 -- -- 41
2020-07-08 04:00:00 21.8 0 Calma 8 Nordeste 0 -- -- 44
2020-07-08 03:00:00 22 0 Calma 4 Este 0 -- -- 47
2020-07-08 02:00:00 21.9 0 Calma 3 Nordeste 0 -- -- 44
2020-07-08 01:00:00 22.9 0 Calma 4 Sudoeste 0 -- -- 41
2020-07-08 00:00:00 23.7 0 Calma 5 Nordeste 0 -- -- 39